Time;durP1;ratioP1;P1;durP2;ratioP2;P2;SDS_P1;SDS_P2;PMS_P1;PMS_P2;Temp;Humidity;BMP_temperature;BMP_pressure;BME280_temperature;BME280_humidity;BME280_pressure;Samples;Min_cycle;Max_cycle;Signal;HPM_P1;HPM_P2
2021/06/04 00:01:52;;;;;;;;;;;27.40;60.60;;;;;;5125022;28;19907;-35
2021/06/04 00:04:18;;;;;;;;;;;27.40;60.60;;;;;;5124585;28;19943;-35
2021/06/04 00:06:44;;;;;;;;;;;27.40;60.50;;;;;;5124938;28;19915;-35
2021/06/04 00:09:11;;;;;;;;;;;27.40;60.60;;;;;;5124887;28;19908;-35
2021/06/04 00:11:41;;;;;;;;;;;27.40;60.50;;;;;;5125052;27;20018;-35
2021/06/04 00:14:11;;;;;;;;;;;27.40;60.50;;;;;;5124404;28;19903;-35
2021/06/04 00:16:39;;;;;;;;;;;27.40;60.60;;;;;;5124875;28;19948;-35
2021/06/04 00:19:06;;;;;;;;;;;27.40;60.50;;;;;;5124725;27;19961;-35
2021/06/04 00:21:37;;;;;;;;;;;27.40;60.50;;;;;;5124810;28;19908;-36
2021/06/04 00:24:03;;;;;;;;;;;27.40;60.50;;;;;;5124372;28;19915;-35
2021/06/04 00:26:30;;;;;;;;;;;27.40;60.50;;;;;;5124615;28;19972;-35
2021/06/04 00:28:56;;;;;;;;;;;27.30;60.40;;;;;;5124466;28;19908;-35
2021/06/04 00:31:21;;;;;;;;;;;27.30;60.40;;;;;;5124528;28;19904;-35
2021/06/04 00:33:48;;;;;;;;;;;27.30;60.40;;;;;;5124118;28;19904;-35
2021/06/04 00:36:14;;;;;;;;;;;27.30;60.30;;;;;;5124462;28;19961;-35
2021/06/04 00:38:40;;;;;;;;;;;27.30;60.40;;;;;;5124344;28;20748;-35
2021/06/04 00:41:17;;;;;;;;;;;27.30;60.40;;;;;;5124330;28;19908;-35
2021/06/04 00:43:43;;;;;;;;;;;27.30;60.40;;;;;;5124011;28;19947;-35
2021/06/04 00:46:09;;;;;;;;;;;27.30;60.40;;;;;;5124055;28;19907;-35
2021/06/04 00:48:35;;;;;;;;;;;27.20;60.40;;;;;;5124457;28;19912;-35
2021/06/04 00:51:01;;;;;;;;;;;27.30;60.50;;;;;;5124296;28;20554;-35
2021/06/04 00:53:27;;;;;;;;;;;27.20;60.40;;;;;;5123565;28;19911;-35
2021/06/04 00:55:53;;;;;;;;;;;27.20;60.50;;;;;;5124119;28;19914;-35
2021/06/04 00:58:20;;;;;;;;;;;27.20;60.50;;;;;;5124047;28;19908;-35
2021/06/04 01:00:50;;;;;;;;;;;27.20;60.40;;;;;;5124120;28;19912;-35
2021/06/04 01:03:16;;;;;;;;;;;27.20;60.50;;;;;;5123580;28;20451;-35
2021/06/04 01:05:42;;;;;;;;;;;27.20;60.50;;;;;;5123299;28;20697;-35
2021/06/04 01:08:20;;;;;;;;;;;27.20;60.40;;;;;;5123750;28;19908;-35
2021/06/04 01:11:07;;;;;;;;;;;27.20;60.40;;;;;;5139144;27;20616;-35
2021/06/04 01:13:49;;;;;;;;;;;27.20;60.40;;;;;;5139110;27;19907;-35
2021/06/04 01:16:19;;;;;;;;;;;27.20;60.40;;;;;;5123882;28;19904;-35
2021/06/04 01:18:52;;;;;;;;;;;27.20;60.40;;;;;;5139404;27;19971;-35
2021/06/04 01:21:37;;;;;;;;;;;27.10;60.30;;;;;;5139590;28;19979;-35
2021/06/04 01:24:09;;;;;;;;;;;27.10;60.40;;;;;;5118702;28;19914;-35
2021/06/04 01:26:40;;;;;;;;;;;27.10;60.40;;;;;;5122514;28;19908;-35
2021/06/04 01:29:20;;;;;;;;;;;27.10;60.40;;;;;;5139467;28;19903;-34
2021/06/04 01:31:48;;;;;;;;;;;27.10;60.40;;;;;;5138914;28;19979;-35
2021/06/04 01:34:16;;;;;;;;;;;27.00;60.40;;;;;;5123524;28;19907;-35
2021/06/04 01:36:46;;;;;;;;;;;27.10;60.40;;;;;;5123758;28;19904;-35
2021/06/04 01:39:16;;;;;;;;;;;27.00;60.40;;;;;;5123463;28;19912;-35
2021/06/04 01:41:42;;;;;;;;;;;27.00;60.40;;;;;;5139103;28;19903;-35
2021/06/04 01:44:11;;;;;;;;;;;27.00;60.30;;;;;;5121945;28;19914;-35
2021/06/04 01:46:41;;;;;;;;;;;27.00;60.40;;;;;;5139237;28;20444;-35
2021/06/04 01:49:13;;;;;;;;;;;27.00;60.40;;;;;;5139655;28;19908;-35
2021/06/04 01:51:43;;;;;;;;;;;27.00;60.40;;;;;;5118825;28;19969;-35
2021/06/04 01:54:11;;;;;;;;;;;27.00;60.40;;;;;;5119822;28;19908;-35
2021/06/04 01:56:41;;;;;;;;;;;27.00;60.40;;;;;;5156591;27;19907;-35
2021/06/04 01:59:09;;;;;;;;;;;26.90;60.30;;;;;;5139056;28;19915;-34
2021/06/04 02:01:36;;;;;;;;;;;27.00;60.30;;;;;;5139277;28;19961;-35
2021/06/04 02:04:05;;;;;;;;;;;26.90;60.30;;;;;;5138843;28;19912;-35
2021/06/04 02:06:31;;;;;;;;;;;26.90;60.30;;;;;;5123588;28;19912;-35
2021/06/04 02:08:57;;;;;;;;;;;26.90;60.30;;;;;;5139258;28;20006;-35
2021/06/04 02:11:25;;;;;;;;;;;26.90;60.30;;;;;;5123225;28;20288;-35
2021/06/04 02:13:51;;;;;;;;;;;26.90;60.30;;;;;;5123323;28;19904;-35
2021/06/04 02:16:29;;;;;;;;;;;26.90;60.30;;;;;;5141166;27;19917;-35
2021/06/04 02:18:58;;;;;;;;;;;26.80;60.30;;;;;;5142894;27;19916;-35
2021/06/04 02:21:26;;;;;;;;;;;26.80;60.30;;;;;;5127153;28;20403;-35
2021/06/04 02:23:54;;;;;;;;;;;26.80;60.40;;;;;;5142770;27;19989;-35
2021/06/04 02:26:28;;;;;;;;;;;26.80;61.10;;;;;;5126744;28;19911;-35
2021/06/04 02:28:59;;;;;;;;;;;26.80;60.40;;;;;;5125657;28;20023;-35
2021/06/04 02:31:52;;;;;;;;;;;26.80;60.40;;;;;;5142678;27;20265;-35
2021/06/04 02:34:17;;;;;;;;;;;26.70;60.30;;;;;;5125746;28;19910;-35
2021/06/04 02:36:50;;;;;;;;;;;26.70;60.50;;;;;;5126813;28;19971;-35
2021/06/04 02:39:36;;;;;;;;;;;26.70;60.40;;;;;;5125133;28;20392;-35
2021/06/04 02:42:04;;;;;;;;;;;26.70;60.40;;;;;;5125578;28;19975;-35
2021/06/04 02:44:31;;;;;;;;;;;26.70;60.40;;;;;;5124649;28;19907;-35
2021/06/04 02:46:58;;;;;;;;;;;26.70;60.40;;;;;;5125250;28;19903;-35
2021/06/04 02:49:24;;;;;;;;;;;26.70;60.40;;;;;;5125095;28;19910;-35
2021/06/04 02:51:49;;;;;;;;;;;26.70;60.50;;;;;;5126429;28;19974;-35
2021/06/04 02:54:17;;;;;;;;;;;26.70;60.30;;;;;;5126266;28;20680;-35
2021/06/04 02:56:44;;;;;;;;;;;26.70;60.40;;;;;;5126407;28;19947;-35
2021/06/04 03:02:50;;;;;;;;;;;;;;;;;;;;;
2021/06/04 03:09:01;;;;;;;;;;;;;;;;;;;;;
2021/06/04 03:11:53;;;;;;;;;;;26.60;60.30;;;;;;5049546;28;20015;-35
2021/06/04 03:17:54;;;;;;;;;;;26.60;60.30;;;;;;4983375;28;19917;-35
2021/06/04 03:20:27;;;;;;;;;;;26.50;60.30;;;;;;5001970;28;19969;-35
2021/06/04 03:29:11;;;;;;;;;;;26.50;60.50;;;;;;5002356;28;19917;-35
2021/06/04 03:38:25;;;;;;;;;;;26.50;60.40;;;;;;4963925;29;19906;-35
2021/06/04 03:47:35;;;;;;;;;;;26.40;60.20;;;;;;4889386;29;19962;-35
2021/06/04 03:50:25;;;;;;;;;;;;;;;;;;;;;
2021/06/04 03:53:11;;;;;;;;;;;26.40;60.20;;;;;;4798827;29;19985;-35
2021/06/04 03:55:48;;;;;;;;;;;26.40;60.20;;;;;;4833635;29;19912;-35
2021/06/04 03:58:14;;;;;;;;;;;26.40;60.20;;;;;;4850863;29;19991;-35
2021/06/04 04:00:42;;;;;;;;;;;26.30;60.20;;;;;;4850629;29;19956;-35
2021/06/04 04:03:08;;;;;;;;;;;26.30;60.30;;;;;;4850618;29;19919;-35
2021/06/04 04:05:33;;;;;;;;;;;26.30;60.40;;;;;;4862971;29;19920;-35
2021/06/04 04:08:00;;;;;;;;;;;26.30;60.40;;;;;;4869135;29;19927;-35
2021/06/04 04:10:26;;;;;;;;;;;26.30;60.40;;;;;;4859865;29;19908;-35
2021/06/04 04:12:53;;;;;;;;;;;26.30;60.50;;;;;;4850528;29;20689;-35
2021/06/04 04:15:19;;;;;;;;;;;26.30;60.60;;;;;;4925963;29;20060;-35
2021/06/04 04:17:45;;;;;;;;;;;26.20;60.40;;;;;;4962957;29;19914;-35
2021/06/04 04:20:13;;;;;;;;;;;26.20;60.30;;;;;;4963250;29;19918;-35
2021/06/04 04:22:39;;;;;;;;;;;26.20;60.20;;;;;;4963448;29;19906;-35
2021/06/04 04:25:05;;;;;;;;;;;26.20;60.30;;;;;;4963069;29;19990;-35
2021/06/04 04:27:31;;;;;;;;;;;26.20;60.10;;;;;;5005628;28;19910;-35
2021/06/04 04:29:58;;;;;;;;;;;26.20;60.20;;;;;;5021588;28;19948;-35
2021/06/04 04:32:24;;;;;;;;;;;26.20;60.10;;;;;;5043628;28;19909;-35
2021/06/04 04:34:50;;;;;;;;;;;26.10;60.00;;;;;;5084182;28;19922;-35
2021/06/04 04:37:15;;;;;;;;;;;26.20;60.00;;;;;;5083645;28;20562;-35
2021/06/04 04:39:42;;;;;;;;;;;26.10;60.10;;;;;;5083649;28;19912;-35
2021/06/04 04:42:09;;;;;;;;;;;26.10;60.00;;;;;;5083911;28;19908;-35
2021/06/04 04:44:36;;;;;;;;;;;26.10;60.00;;;;;;5099095;28;19908;-35
2021/06/04 04:47:06;;;;;;;;;;;26.10;60.00;;;;;;5083481;28;19936;-35
2021/06/04 04:49:32;;;;;;;;;;;26.10;60.00;;;;;;5083683;28;19904;-35
2021/06/04 04:51:58;;;;;;;;;;;26.10;60.10;;;;;;5083466;28;19955;-34
2021/06/04 04:54:24;;;;;;;;;;;26.10;60.30;;;;;;5083559;28;19908;-35
2021/06/04 04:56:50;;;;;;;;;;;26.10;60.30;;;;;;5083416;28;20330;-35
2021/06/04 04:59:16;;;;;;;;;;;26.00;60.30;;;;;;5083422;28;20028;-35
2021/06/04 05:01:42;;;;;;;;;;;26.00;60.30;;;;;;5083489;28;19904;-35
2021/06/04 05:04:08;;;;;;;;;;;26.00;60.50;;;;;;5086294;28;19931;-35
2021/06/04 05:06:34;;;;;;;;;;;26.00;60.30;;;;;;5123894;28;19915;-35
2021/06/04 05:09:00;;;;;;;;;;;26.00;60.30;;;;;;5123988;28;19952;-35
2021/06/04 05:11:26;;;;;;;;;;;25.90;60.20;;;;;;5124170;28;19947;-35
2021/06/04 05:13:52;;;;;;;;;;;25.90;60.10;;;;;;5123821;28;19907;-35
2021/06/04 05:16:18;;;;;;;;;;;25.90;59.90;;;;;;5123402;28;19950;-35
2021/06/04 05:18:44;;;;;;;;;;;26.00;60.20;;;;;;5123805;28;19915;-35
2021/06/04 05:21:11;;;;;;;;;;;25.90;60.10;;;;;;5124071;28;19937;-35
2021/06/04 05:23:36;;;;;;;;;;;25.90;59.90;;;;;;5139629;28;20622;-35
2021/06/04 05:26:02;;;;;;;;;;;25.90;60.10;;;;;;5123842;28;19967;-35
2021/06/04 05:28:28;;;;;;;;;;;25.90;60.00;;;;;;5123544;28;19953;-35
2021/06/04 05:30:56;;;;;;;;;;;25.90;60.00;;;;;;5123637;28;19908;-35
2021/06/04 05:33:23;;;;;;;;;;;25.90;60.20;;;;;;5123619;28;19915;-35
2021/06/04 05:35:49;;;;;;;;;;;25.90;60.10;;;;;;5123569;28;19914;-35
2021/06/04 05:38:15;;;;;;;;;;;25.80;60.10;;;;;;5123664;28;19967;-35
2021/06/04 05:40:43;;;;;;;;;;;25.80;60.00;;;;;;5123572;28;19947;-35
2021/06/04 05:43:09;;;;;;;;;;;25.80;60.10;;;;;;5123479;28;19907;-35
2021/06/04 05:45:37;;;;;;;;;;;25.80;60.10;;;;;;5122004;28;19910;-34
2021/06/04 05:48:03;;;;;;;;;;;25.80;60.20;;;;;;5123072;28;19911;-35
2021/06/04 05:50:31;;;;;;;;;;;25.80;60.10;;;;;;5124726;28;19907;-35
2021/06/04 05:52:57;;;;;;;;;;;25.80;60.20;;;;;;5127472;28;19904;-35
2021/06/04 05:55:24;;;;;;;;;;;25.80;60.30;;;;;;5127397;27;19970;-35
2021/06/04 05:57:50;;;;;;;;;;;25.80;60.30;;;;;;5160422;27;19929;-35
2021/06/04 06:00:23;;;;;;;;;;;25.70;60.20;;;;;;5127384;28;19916;-35
2021/06/04 06:02:49;;;;;;;;;;;25.70;60.10;;;;;;5127341;27;19907;-35
2021/06/04 06:05:15;;;;;;;;;;;25.70;60.20;;;;;;5127170;28;19926;-35
2021/06/04 06:07:41;;;;;;;;;;;25.70;60.10;;;;;;5142837;27;19907;-35
2021/06/04 06:10:07;;;;;;;;;;;25.70;60.00;;;;;;5127343;28;19908;-35
2021/06/04 06:12:33;;;;;;;;;;;25.70;60.00;;;;;;5127230;28;19907;-34
2021/06/04 06:14:59;;;;;;;;;;;25.70;60.00;;;;;;5127266;28;19919;-35
2021/06/04 06:17:25;;;;;;;;;;;25.60;59.90;;;;;;5126808;28;19911;-35
2021/06/04 06:19:50;;;;;;;;;;;25.70;59.90;;;;;;5127121;28;19912;-35
2021/06/04 06:22:16;;;;;;;;;;;25.60;59.80;;;;;;5127157;28;19971;-35
2021/06/04 06:24:42;;;;;;;;;;;25.60;59.90;;;;;;5126964;28;19903;-35
2021/06/04 06:27:08;;;;;;;;;;;25.60;59.90;;;;;;5126794;28;19907;-35
2021/06/04 06:29:36;;;;;;;;;;;25.60;60.00;;;;;;5126557;28;19914;-35
2021/06/04 06:32:03;;;;;;;;;;;25.60;60.00;;;;;;5127068;28;20014;-35
2021/06/04 06:34:29;;;;;;;;;;;25.60;60.20;;;;;;5126630;28;19947;-35
2021/06/04 06:36:54;;;;;;;;;;;25.60;60.40;;;;;;5126818;28;19907;-35
2021/06/04 06:39:22;;;;;;;;;;;25.50;60.30;;;;;;5126291;27;19986;-35
2021/06/04 06:41:48;;;;;;;;;;;25.60;60.40;;;;;;5126776;28;19911;-35
2021/06/04 06:44:13;;;;;;;;;;;25.50;60.30;;;;;;5126782;28;19954;-35
2021/06/04 06:46:40;;;;;;;;;;;25.50;60.40;;;;;;5126597;28;19931;-35
2021/06/04 06:49:05;;;;;;;;;;;25.50;60.30;;;;;;5126265;28;19904;-35
2021/06/04 06:51:33;;;;;;;;;;;25.50;60.30;;;;;;5126492;28;19914;-35
2021/06/04 06:53:59;;;;;;;;;;;25.50;60.20;;;;;;5125978;28;19907;-35
2021/06/04 06:56:25;;;;;;;;;;;25.40;59.90;;;;;;5126386;28;20240;-35
2021/06/04 06:58:51;;;;;;;;;;;25.50;60.10;;;;;;5125930;28;19911;-35
2021/06/04 07:01:17;;;;;;;;;;;25.40;60.00;;;;;;5112405;28;19910;-35
2021/06/04 07:03:43;;;;;;;;;;;25.40;60.00;;;;;;5125225;28;20006;-35
2021/06/04 07:06:11;;;;;;;;;;;25.40;60.00;;;;;;5125985;28;19919;-35
2021/06/04 07:08:37;;;;;;;;;;;25.40;60.00;;;;;;5125754;28;19907;-34
2021/06/04 07:11:03;;;;;;;;;;;25.40;60.00;;;;;;5125953;27;19908;-35
2021/06/04 07:13:29;;;;;;;;;;;25.40;60.00;;;;;;5126199;28;19910;-35
2021/06/04 07:16:00;;;;;;;;;;;25.40;60.00;;;;;;5125606;28;19943;-34
2021/06/04 07:18:26;;;;;;;;;;;25.40;60.00;;;;;;5125556;28;19907;-35
2021/06/04 07:20:52;;;;;;;;;;;25.30;60.00;;;;;;5141868;27;19957;-35
2021/06/04 07:23:18;;;;;;;;;;;25.30;60.10;;;;;;5125740;28;19907;-35
2021/06/04 07:25:44;;;;;;;;;;;25.30;60.20;;;;;;5125767;28;19908;-35
2021/06/04 07:28:12;;;;;;;;;;;25.30;60.30;;;;;;5125633;28;20604;-35
2021/06/04 07:30:40;;;;;;;;;;;25.30;60.30;;;;;;5125792;28;19907;-35
2021/06/04 07:33:08;;;;;;;;;;;25.30;60.50;;;;;;5125552;28;19910;-35
2021/06/04 07:35:34;;;;;;;;;;;25.20;60.30;;;;;;5125761;27;19976;-35
2021/06/04 07:38:00;;;;;;;;;;;25.20;60.30;;;;;;5125804;28;19908;-35
2021/06/04 07:40:26;;;;;;;;;;;25.20;60.30;;;;;;5125229;28;20394;-35
2021/06/04 07:52:52;;;;;;;;;;;25.20;60.20;;;;;;4998218;28;19910;-35
2021/06/04 08:05:35;;;;;;;;;;;25.10;60.10;;;;;;4791871;29;19925;-35
2021/06/04 08:08:33;;;;;;;;;;;25.10;60.10;;;;;;4795899;30;19924;-35
2021/06/04 08:11:40;;;;;;;;;;;;;;;;;;;;;
2021/06/04 08:29:43;;;;;;;;;;;25.00;60.30;;;;;;5057957;28;19924;-35
2021/06/04 08:35:31;;;;;;;;;;;25.00;60.30;;;;;;5017585;28;19914;-35
2021/06/04 08:38:15;;;;;;;;;;;25.00;60.30;;;;;;4978524;28;19946;-35
2021/06/04 08:41:03;;;;;;;;;;;24.90;60.30;;;;;;4978298;28;19926;-35
2021/06/04 08:43:42;;;;;;;;;;;24.90;60.30;;;;;;4964704;28;20033;-35
2021/06/04 08:46:08;;;;;;;;;;;24.90;60.30;;;;;;4962268;28;20023;-35
2021/06/04 08:48:34;;;;;;;;;;;24.80;60.30;;;;;;4978358;28;19915;-35
2021/06/04 08:51:02;;;;;;;;;;;24.90;60.30;;;;;;4978822;28;19910;-35
2021/06/04 08:53:30;;;;;;;;;;;24.90;60.40;;;;;;4973362;28;20516;-35
2021/06/04 08:55:59;;;;;;;;;;;24.80;60.30;;;;;;4978256;28;19999;-35
2021/06/04 08:59:02;;;;;;;;;;;24.80;60.40;;;;;;4978238;28;20022;-35
2021/06/04 09:01:33;;;;;;;;;;;24.80;60.40;;;;;;4983292;28;19925;-35
2021/06/04 09:04:04;;;;;;;;;;;24.80;60.50;;;;;;4995298;28;19913;-35
2021/06/04 09:06:54;;;;;;;;;;;24.80;60.60;;;;;;5021092;28;19941;-35
2021/06/04 09:09:41;;;;;;;;;;;24.80;61.30;;;;;;5040362;28;19925;-35
2021/06/04 09:12:12;;;;;;;;;;;24.80;60.60;;;;;;5048416;28;19967;-35
2021/06/04 09:14:39;;;;;;;;;;;24.70;60.50;;;;;;5079923;28;20436;-35
2021/06/04 09:17:08;;;;;;;;;;;24.70;60.50;;;;;;5140335;28;19916;-35
2021/06/04 09:19:39;;;;;;;;;;;24.70;60.40;;;;;;5143899;27;19911;-35
2021/06/04 09:22:06;;;;;;;;;;;24.70;60.50;;;;;;5160984;27;19927;-35
2021/06/04 09:24:34;;;;;;;;;;;24.70;60.50;;;;;;5142588;27;19911;-35
2021/06/04 09:27:00;;;;;;;;;;;24.70;60.50;;;;;;5147996;27;19914;-35
2021/06/04 09:29:27;;;;;;;;;;;24.70;60.50;;;;;;5140221;28;20010;-35
2021/06/04 09:31:57;;;;;;;;;;;24.70;60.50;;;;;;5133791;27;19911;-35
2021/06/04 09:34:26;;;;;;;;;;;24.60;60.50;;;;;;5146401;27;19955;-35
2021/06/04 09:36:53;;;;;;;;;;;24.60;60.50;;;;;;5147094;27;19912;-35
2021/06/04 09:39:27;;;;;;;;;;;24.60;60.60;;;;;;5146821;27;20463;-35
2021/06/04 09:41:53;;;;;;;;;;;24.60;60.50;;;;;;5128422;27;19919;-35
2021/06/04 09:44:19;;;;;;;;;;;24.60;60.60;;;;;;5128749;27;19912;-35
2021/06/04 09:47:04;;;;;;;;;;;24.60;60.70;;;;;;5147203;27;19947;-35
2021/06/04 09:49:43;;;;;;;;;;;24.60;60.70;;;;;;5143756;27;19940;-35
2021/06/04 09:52:27;;;;;;;;;;;24.60;60.70;;;;;;5126179;28;19933;-35
2021/06/04 09:55:08;;;;;;;;;;;24.60;60.70;;;;;;5127257;27;19912;-35
2021/06/04 09:57:34;;;;;;;;;;;24.60;60.80;;;;;;5130731;27;19911;-35
2021/06/04 10:00:20;;;;;;;;;;;24.50;60.70;;;;;;5128228;27;19966;-35
2021/06/04 10:02:46;;;;;;;;;;;24.50;60.60;;;;;;5126490;27;19919;-36
2021/06/04 10:05:14;;;;;;;;;;;24.50;60.70;;;;;;5126014;28;19908;-35
2021/06/04 10:07:40;;;;;;;;;;;24.50;60.70;;;;;;5107792;28;19918;-35
2021/06/04 10:10:10;;;;;;;;;;;24.50;60.80;;;;;;5125803;28;19943;-35
2021/06/04 10:12:37;;;;;;;;;;;24.50;60.70;;;;;;5107536;28;20318;-36
2021/06/04 10:15:37;;;;;;;;;;;24.50;60.80;;;;;;5125918;28;19950;-35
2021/06/04 10:18:21;;;;;;;;;;;24.50;60.80;;;;;;5022065;28;19920;-35
2021/06/04 10:20:48;;;;;;;;;;;24.40;60.70;;;;;;5035668;28;20365;-35
2021/06/04 10:23:17;;;;;;;;;;;24.50;60.80;;;;;;5042330;28;19923;-35
2021/06/04 10:25:49;;;;;;;;;;;24.40;60.70;;;;;;5042174;28;19921;-35
2021/06/04 10:28:33;;;;;;;;;;;24.40;60.70;;;;;;5041983;28;19913;-35
2021/06/04 10:31:06;;;;;;;;;;;24.40;60.80;;;;;;5041874;28;20015;-35
2021/06/04 10:33:35;;;;;;;;;;;24.40;60.80;;;;;;5025452;28;19986;-35
2021/06/04 10:36:01;;;;;;;;;;;24.40;60.90;;;;;;5025505;28;19917;-36
2021/06/04 10:38:32;;;;;;;;;;;24.40;60.80;;;;;;5025153;28;19963;-35
2021/06/04 10:40:58;;;;;;;;;;;24.40;61.00;;;;;;5025351;28;19916;-35
2021/06/04 10:43:28;;;;;;;;;;;24.30;61.00;;;;;;5025264;28;19936;-35
2021/06/04 10:46:09;;;;;;;;;;;24.30;60.90;;;;;;5024387;28;20012;-35
2021/06/04 10:48:55;;;;;;;;;;;24.30;60.90;;;;;;5032860;28;19956;-35
2021/06/04 10:51:27;;;;;;;;;;;24.30;61.00;;;;;;5025026;28;19910;-35
2021/06/04 10:54:02;;;;;;;;;;;24.30;61.00;;;;;;5094526;27;19912;-35
2021/06/04 10:56:42;;;;;;;;;;;24.30;61.00;;;;;;5137030;27;19979;-35
2021/06/04 10:59:28;;;;;;;;;;;24.30;61.00;;;;;;5106349;28;19988;-35
2021/06/04 11:02:13;;;;;;;;;;;24.30;61.00;;;;;;5136344;27;19924;-35
2021/06/04 11:04:57;;;;;;;;;;;24.30;61.10;;;;;;5145416;27;20382;-35
2021/06/04 11:07:42;;;;;;;;;;;24.20;61.00;;;;;;5145269;27;19943;-35
2021/06/04 11:10:11;;;;;;;;;;;24.30;61.10;;;;;;5144904;27;19956;-35
2021/06/04 11:12:55;;;;;;;;;;;24.20;61.10;;;;;;5142069;27;19912;-35
2021/06/04 11:15:27;;;;;;;;;;;24.20;61.10;;;;;;5145246;27;19907;-35
2021/06/04 11:18:00;;;;;;;;;;;24.20;61.10;;;;;;5122871;27;19912;-35
2021/06/04 11:20:36;;;;;;;;;;;24.20;61.10;;;;;;5115523;28;19907;-35
2021/06/04 11:23:02;;;;;;;;;;;24.20;61.20;;;;;;5105899;28;20433;-36
2021/06/04 11:25:45;;;;;;;;;;;24.20;61.10;;;;;;5124127;28;19911;-35
2021/06/04 11:28:30;;;;;;;;;;;24.10;61.10;;;;;;5124336;28;19914;-35
2021/06/04 11:30:56;;;;;;;;;;;24.10;61.10;;;;;;5127620;27;19986;-35
2021/06/04 11:33:33;;;;;;;;;;;24.10;61.10;;;;;;5144942;27;19927;-35
2021/06/04 11:36:04;;;;;;;;;;;24.10;61.10;;;;;;5144915;27;19939;-35
2021/06/04 11:38:32;;;;;;;;;;;24.10;61.10;;;;;;5126081;27;20379;-35
2021/06/04 11:41:05;;;;;;;;;;;24.10;61.20;;;;;;5125807;27;19919;-35
2021/06/04 11:43:31;;;;;;;;;;;24.10;61.30;;;;;;5144776;27;19915;-35
2021/06/04 11:46:14;;;;;;;;;;;24.10;61.20;;;;;;5126118;27;19931;-35
2021/06/04 11:48:41;;;;;;;;;;;24.10;61.30;;;;;;5144804;27;19974;-35
2021/06/04 11:51:19;;;;;;;;;;;24.10;61.20;;;;;;5127673;27;19914;-35
2021/06/04 11:53:48;;;;;;;;;;;24.10;61.30;;;;;;5123787;28;19916;-35
2021/06/04 11:56:33;;;;;;;;;;;24.10;61.20;;;;;;5111314;27;19922;-35
2021/06/04 11:58:59;;;;;;;;;;;24.00;61.10;;;;;;5144373;27;19958;-35
2021/06/04 12:01:25;;;;;;;;;;;24.10;61.20;;;;;;5136173;27;19916;-35
2021/06/04 12:04:11;;;;;;;;;;;24.00;61.20;;;;;;5123694;28;20007;-35
2021/06/04 12:06:37;;;;;;;;;;;24.00;61.20;;;;;;5122998;28;20002;-35
2021/06/04 12:09:08;;;;;;;;;;;24.00;61.20;;;;;;5123935;28;19907;-35
2021/06/04 12:11:34;;;;;;;;;;;24.00;61.90;;;;;;5104859;28;19911;-35
2021/06/04 12:14:00;;;;;;;;;;;24.00;61.20;;;;;;5123591;28;19941;-35
2021/06/04 12:16:30;;;;;;;;;;;24.00;61.20;;;;;;5123511;28;19911;-35
2021/06/04 12:18:59;;;;;;;;;;;24.00;61.20;;;;;;5105435;28;19965;-35
2021/06/04 12:21:37;;;;;;;;;;;24.00;61.20;;;;;;5123225;28;19928;-35
2021/06/04 12:24:06;;;;;;;;;;;24.00;61.20;;;;;;5123459;28;19937;-35
2021/06/04 12:26:39;;;;;;;;;;;24.00;61.20;;;;;;5123271;28;19918;-35
2021/06/04 12:29:23;;;;;;;;;;;24.00;61.20;;;;;;5123564;28;20388;-35
2021/06/04 12:32:00;;;;;;;;;;;24.00;61.20;;;;;;5134428;28;19911;-35
2021/06/04 12:34:32;;;;;;;;;;;24.00;61.20;;;;;;5143993;28;19919;-36
2021/06/04 12:37:16;;;;;;;;;;;24.00;61.20;;;;;;5144103;28;19914;-35
2021/06/04 12:39:43;;;;;;;;;;;24.00;61.20;;;;;;5144267;28;20591;-35
2021/06/04 12:42:17;;;;;;;;;;;24.00;61.20;;;;;;5143700;28;19920;-35
2021/06/04 12:44:53;;;;;;;;;;;24.00;61.20;;;;;;5144113;28;19932;-35
2021/06/04 12:47:39;;;;;;;;;;;24.00;62.00;;;;;;5143841;28;20100;-35
2021/06/04 12:50:09;;;;;;;;;;;24.10;61.30;;;;;;5135435;28;19957;-35
2021/06/04 12:52:35;;;;;;;;;;;24.10;61.40;;;;;;5129026;28;20438;-35
2021/06/04 12:55:14;;;;;;;;;;;24.10;61.40;;;;;;5127065;28;19908;-35
2021/06/04 12:57:40;;;;;;;;;;;24.10;61.30;;;;;;5123340;28;19908;-35
2021/06/04 13:00:16;;;;;;;;;;;24.10;61.30;;;;;;5122937;28;19908;-34
2021/06/04 13:02:43;;;;;;;;;;;24.10;61.30;;;;;;5141920;28;19986;-35
2021/06/04 13:05:09;;;;;;;;;;;24.10;61.30;;;;;;5139145;28;19911;-35
2021/06/04 13:07:41;;;;;;;;;;;24.10;61.30;;;;;;5125601;27;19937;-35
2021/06/04 13:10:38;;;;;;;;;;;24.10;61.30;;;;;;5125792;27;19911;-35
2021/06/04 13:13:10;;;;;;;;;;;24.10;61.30;;;;;;5115871;27;19979;-35
2021/06/04 13:15:36;;;;;;;;;;;24.10;61.30;;;;;;5147411;27;20364;-35
2021/06/04 13:18:03;;;;;;;;;;;24.20;61.30;;;;;;5147578;27;19942;-35
2021/06/04 13:20:30;;;;;;;;;;;24.20;61.30;;;;;;5136104;27;19918;-35
2021/06/04 13:23:05;;;;;;;;;;;24.20;61.30;;;;;;5126632;28;19955;-35
2021/06/04 13:25:31;;;;;;;;;;;24.20;61.30;;;;;;5126423;27;19908;-35
2021/06/04 13:28:01;;;;;;;;;;;24.20;61.30;;;;;;5147314;27;19939;-35
2021/06/04 13:30:26;;;;;;;;;;;24.20;61.40;;;;;;5128834;27;19929;-35
2021/06/04 13:32:57;;;;;;;;;;;24.30;61.40;;;;;;5126648;28;19911;-35
2021/06/04 13:35:28;;;;;;;;;;;24.30;61.40;;;;;;5108648;28;19911;-35
2021/06/04 13:38:02;;;;;;;;;;;24.30;61.40;;;;;;5108227;28;20122;-35
2021/06/04 13:40:30;;;;;;;;;;;24.30;61.40;;;;;;5107846;28;19912;-35
2021/06/04 13:42:59;;;;;;;;;;;24.30;61.50;;;;;;5125968;28;19979;-40
2021/06/04 13:45:25;;;;;;;;;;;24.40;61.50;;;;;;5108373;28;19915;-35
2021/06/04 13:48:11;;;;;;;;;;;24.40;61.50;;;;;;5126332;28;20413;-35
2021/06/04 13:51:11;;;;;;;;;;;24.40;61.50;;;;;;5108191;28;19947;-35
2021/06/04 13:53:33;;;;;;;;;;;24.40;61.60;;;;;;5125592;28;19912;-35
2021/06/04 13:56:09;;;;;;;;;;;24.40;61.50;;;;;;5132418;27;19960;-35
2021/06/04 13:58:35;;;;;;;;;;;24.50;61.80;;;;;;5131657;27;20354;-35
2021/06/04 14:01:10;;;;;;;;;;;24.50;61.80;;;;;;5127582;27;19947;-35
2021/06/04 14:03:38;;;;;;;;;;;24.50;62.20;;;;;;5132165;27;20019;-35
2021/06/04 14:06:34;;;;;;;;;;;24.50;61.80;;;;;;5131090;27;19912;-36
2021/06/04 14:09:03;;;;;;;;;;;24.60;62.00;;;;;;5114131;27;19997;-35
2021/06/04 14:11:29;;;;;;;;;;;24.60;62.00;;;;;;5128036;27;20295;-35
2021/06/04 14:13:56;;;;;;;;;;;24.60;62.00;;;;;;5110427;28;20501;-35
2021/06/04 14:16:51;;;;;;;;;;;24.60;61.90;;;;;;5110541;27;19989;-35
2021/06/04 14:19:27;;;;;;;;;;;24.60;61.80;;;;;;5116882;27;19912;-35
2021/06/04 14:21:53;;;;;;;;;;;24.70;61.90;;;;;;5133855;27;20349;-35
2021/06/04 14:24:20;;;;;;;;;;;24.70;61.90;;;;;;5130915;27;19918;-35
2021/06/04 14:26:51;;;;;;;;;;;24.70;61.90;;;;;;5133964;27;19984;-36
2021/06/04 14:29:29;;;;;;;;;;;24.80;61.90;;;;;;5130469;27;19980;-34
2021/06/04 14:31:55;;;;;;;;;;;24.70;61.70;;;;;;5138085;27;19915;-35
2021/06/04 14:34:22;;;;;;;;;;;24.80;61.90;;;;;;5145841;27;19908;-35
2021/06/04 14:36:48;;;;;;;;;;;24.80;62.00;;;;;;5145837;27;20002;-35
2021/06/04 14:39:23;;;;;;;;;;;24.80;62.10;;;;;;5145984;27;19962;-35
2021/06/04 14:41:49;;;;;;;;;;;24.80;62.20;;;;;;5145752;27;19919;-35
2021/06/04 14:44:15;;;;;;;;;;;24.80;62.20;;;;;;5145840;27;19937;-35
2021/06/04 14:46:40;;;;;;;;;;;24.90;62.30;;;;;;5145259;27;19919;-35
2021/06/04 14:49:11;;;;;;;;;;;24.90;62.50;;;;;;5145533;27;19960;-35
2021/06/04 14:51:36;;;;;;;;;;;24.90;62.30;;;;;;5131097;27;19993;-34
2021/06/04 14:54:03;;;;;;;;;;;24.90;62.60;;;;;;5134122;27;19907;-35
2021/06/04 14:56:28;;;;;;;;;;;25.00;62.70;;;;;;5124554;28;19918;-34
2021/06/04 14:58:54;;;;;;;;;;;25.00;63.10;;;;;;5124983;28;20136;-35
2021/06/04 15:01:21;;;;;;;;;;;25.00;62.30;;;;;;5132194;27;19919;-35
2021/06/04 15:03:47;;;;;;;;;;;25.00;62.30;;;;;;5124574;28;19908;-35
2021/06/04 15:06:13;;;;;;;;;;;25.00;62.20;;;;;;5124349;28;19911;-35
2021/06/04 15:08:39;;;;;;;;;;;25.00;62.20;;;;;;5124861;28;19919;-35
2021/06/04 15:11:05;;;;;;;;;;;25.10;62.20;;;;;;5124684;28;19954;-35
2021/06/04 15:13:35;;;;;;;;;;;25.10;62.20;;;;;;5124649;28;19915;-35
2021/06/04 15:16:02;;;;;;;;;;;25.10;62.10;;;;;;5124240;28;19912;-35
2021/06/04 15:18:28;;;;;;;;;;;25.10;62.20;;;;;;5124650;28;19915;-35
2021/06/04 15:20:54;;;;;;;;;;;25.20;62.40;;;;;;5123835;28;19912;-35
2021/06/04 15:23:20;;;;;;;;;;;25.20;62.40;;;;;;5124371;28;19929;-35
2021/06/04 15:25:47;;;;;;;;;;;25.20;62.40;;;;;;5123828;28;20747;-35
2021/06/04 15:28:14;;;;;;;;;;;25.20;62.40;;;;;;5124275;28;19954;-35
2021/06/04 15:30:40;;;;;;;;;;;25.20;62.60;;;;;;5125172;27;19984;-35
2021/06/04 15:33:06;;;;;;;;;;;25.20;62.60;;;;;;5144608;27;19918;-35
2021/06/04 15:35:31;;;;;;;;;;;25.20;62.50;;;;;;5144721;27;19911;-35
2021/06/04 15:37:58;;;;;;;;;;;25.30;62.70;;;;;;5143930;27;19929;-35
2021/06/04 15:40:23;;;;;;;;;;;25.30;62.70;;;;;;5136738;27;19911;-35
2021/06/04 15:42:49;;;;;;;;;;;25.30;63.00;;;;;;5108665;27;20015;-35
2021/06/04 15:45:15;;;;;;;;;;;25.30;62.70;;;;;;5144572;27;19982;-35
2021/06/04 15:47:41;;;;;;;;;;;25.40;62.60;;;;;;5144185;27;19915;-35
2021/06/04 15:50:08;;;;;;;;;;;25.40;62.50;;;;;;5136339;27;19912;-35